CheckWX is a tool to help pilots better visualize weather data.  It is not intended as a substitute for an official pre-flight weather briefing.

18:10:11 UTC

EBBR TAF
Brussels Airport
Brussels, Belgium
TAF EBBR 171720Z 1718/1824 20007KT CAVOK

Feb-17@
18:00 UTC

Feb-17 @ 18:00 UTC

Feb-19@
00:00 UTC

Feb-19 @ 00:00 UTC

TAF EBBR 171720Z 1718/1824 20007KT CAVOK
Wind
  • 200° at 7 KTS
Visibility
10,000+ meters
Conditions
No significant weather
Cloud Levels
  • No significant clouds